createdAt,value
2018-09-13T07:58:31.283Z,980.51
2018-09-13T07:59:41.143Z,980.49
2018-09-13T08:00:50.720Z,980.51
2018-09-13T08:02:00.582Z,980.54
2018-09-13T08:03:09.941Z,980.51
2018-09-13T08:04:19.244Z,980.53
2018-09-13T08:05:29.104Z,980.6
2018-09-13T08:06:39.237Z,980.57
2018-09-13T08:07:49.422Z,980.61
2018-09-13T08:08:59.326Z,980.63
2018-09-13T08:10:09.449Z,980.62
2018-09-13T08:11:19.303Z,980.67
2018-09-13T08:12:29.552Z,980.67
2018-09-13T08:13:39.180Z,980.67
2018-09-13T08:14:49.034Z,980.67
2018-09-13T08:15:59.300Z,980.66
2018-09-13T08:17:09.314Z,980.67
2018-09-13T08:18:18.893Z,980.65
2018-09-13T08:19:29.017Z,980.66
2018-09-13T08:20:38.875Z,980.67
2018-09-13T08:21:49.131Z,980.66
2018-09-13T08:22:59.717Z,980.71
2018-09-13T08:24:09.578Z,980.71
2018-09-13T08:25:19.708Z,980.79
2018-09-13T08:26:29.285Z,980.82
2018-09-13T08:27:39.205Z,980.83
2018-09-13T08:28:49.062Z,980.79
2018-09-13T08:29:59.215Z,980.81
2018-09-13T08:31:08.807Z,980.82
2018-09-13T08:32:18.939Z,980.83
2018-09-13T08:33:29.174Z,980.87
2018-09-13T08:34:39.833Z,980.87
2018-09-13T08:35:50.556Z,980.87
2018-09-13T08:37:00.766Z,980.86
2018-09-13T08:38:11.018Z,980.85
2018-09-13T08:39:21.147Z,980.87
2018-09-13T08:40:31.280Z,980.93
2018-09-13T08:41:41.137Z,980.86
2018-09-13T08:42:50.988Z,980.85
2018-09-13T08:44:01.301Z,980.88
2018-09-13T08:45:11.151Z,980.87
2018-09-13T08:46:20.738Z,980.89
2018-09-13T08:47:30.625Z,980.87
2018-09-13T08:48:40.812Z,980.89
2018-09-13T08:49:50.935Z,980.89
2018-09-13T08:51:00.242Z,980.91
2018-09-13T08:52:10.247Z,980.88
2018-09-13T08:53:20.399Z,980.93
2018-09-13T08:54:29.751Z,980.95
2018-09-13T08:55:39.884Z,980.97
2018-09-13T08:56:49.460Z,980.96
2018-09-13T08:57:59.088Z,980.98
2018-09-13T08:59:08.940Z,980.96
2018-09-13T09:00:18.246Z,980.94
2018-09-13T09:01:28.427Z,980.92
2018-09-13T09:02:38.281Z,980.9
2018-09-13T09:03:48.413Z,980.88
2018-09-13T09:04:58.540Z,980.81
2018-09-13T09:06:08.816Z,980.84
2018-09-13T09:07:19.190Z,980.83
2018-09-13T09:08:29.090Z,980.89
2018-09-13T09:09:38.943Z,980.84
2018-09-13T09:10:49.072Z,980.79
2018-09-13T09:11:58.800Z,980.87
2018-09-13T09:13:08.722Z,980.83
2018-09-13T09:14:18.302Z,980.85
2018-09-13T09:15:28.433Z,980.8
2018-09-13T09:16:38.287Z,980.83
2018-09-13T09:17:48.151Z,980.85
2018-09-13T09:18:57.736Z,980.83
2018-09-13T09:20:07.591Z,980.81
2018-09-13T09:21:17.492Z,980.84
2018-09-13T09:22:27.362Z,980.81
2018-09-13T09:23:37.539Z,980.81
2018-09-13T09:24:47.389Z,980.81
2018-09-13T09:25:57.291Z,980.81
2018-09-13T09:27:07.241Z,980.82
2018-09-13T09:28:17.372Z,980.76
2018-09-13T09:29:27.329Z,980.76
2018-09-13T09:30:37.131Z,980.8
2018-09-13T09:31:47.000Z,980.73
2018-09-13T09:32:57.140Z,980.69
2018-09-13T09:34:06.772Z,980.7
2018-09-13T09:35:16.623Z,980.76
2018-09-13T09:36:26.254Z,980.74
2018-09-13T09:37:36.379Z,980.71
2018-09-13T09:38:45.960Z,980.74
2018-09-13T09:39:55.681Z,980.76
2018-09-13T09:41:05.008Z,980.76
2018-09-13T09:42:14.956Z,980.74
2018-09-13T09:43:24.816Z,980.76
2018-09-13T09:44:34.952Z,980.75
2018-09-13T09:45:45.153Z,980.78
2018-09-13T09:46:55.004Z,980.76
2018-09-13T09:48:04.606Z,980.75
2018-09-13T09:49:14.868Z,980.75
2018-09-13T09:50:25.061Z,980.76
2018-09-13T09:51:35.670Z,980.7
2018-09-13T09:52:45.805Z,980.72
2018-09-13T09:53:55.753Z,980.69
2018-09-13T09:55:04.782Z,980.7
2018-09-13T09:56:15.063Z,980.69
2018-09-13T09:57:25.413Z,980.71
2018-09-13T09:58:35.546Z,980.71
2018-09-13T09:59:45.455Z,980.72
2018-09-13T10:00:55.313Z,980.78
2018-09-13T10:02:04.616Z,980.75
2018-09-13T10:03:14.809Z,980.76
2018-09-13T10:04:24.665Z,980.71
2018-09-13T10:05:34.729Z,980.78
2018-09-13T10:06:44.632Z,980.78
2018-09-13T10:07:54.211Z,980.75
2018-09-13T10:09:03.820Z,980.75
2018-09-13T10:10:14.451Z,980.69
2018-09-13T10:11:24.581Z,980.66
2018-09-13T10:12:34.716Z,980.63
2018-09-13T10:13:44.341Z,980.64
2018-09-13T10:14:53.922Z,980.67
2018-09-13T10:16:04.263Z,980.66
2018-09-13T10:17:14.556Z,980.69
2018-09-13T10:18:23.861Z,980.68
2018-09-13T10:19:33.990Z,980.61
2018-09-13T10:20:43.571Z,980.67
2018-09-13T10:21:53.419Z,980.69
2018-09-13T10:23:03.791Z,980.72
2018-09-13T10:24:13.362Z,980.72
2018-09-13T10:25:22.666Z,980.65
2018-09-13T10:26:32.619Z,980.69
2018-09-13T10:27:42.479Z,980.73
2018-09-13T10:28:52.711Z,980.68
2018-09-13T10:30:02.342Z,980.66
2018-09-13T10:31:12.266Z,980.67
2018-09-13T10:32:22.118Z,980.66
2018-09-13T10:33:32.256Z,980.62
2018-09-13T10:34:42.706Z,980.61
2018-09-13T10:35:52.566Z,980.59
2018-09-13T10:37:02.743Z,980.53
2018-09-13T10:38:12.325Z,980.59
2018-09-13T10:39:22.451Z,980.55
2018-09-13T10:40:32.311Z,980.59
2018-09-13T10:41:42.387Z,980.51
2018-09-13T10:42:52.237Z,980.52
2018-09-13T10:44:02.141Z,980.59
2018-09-13T10:45:12.317Z,980.59
2018-09-13T10:46:22.216Z,980.59
2018-09-13T10:47:32.365Z,980.49
2018-09-13T10:48:57.317Z,980.51
2018-09-13T10:50:06.624Z,980.52
2018-09-13T10:51:16.762Z,980.49
2018-09-13T10:52:26.419Z,980.46
2018-09-13T10:53:36.497Z,980.48
2018-09-13T10:54:45.623Z,980.49
2018-09-13T10:55:55.840Z,980.49
2018-09-13T10:57:05.768Z,980.51
2018-09-13T10:58:15.625Z,980.55
2018-09-13T10:59:25.810Z,980.51
2018-09-13T11:00:35.410Z,980.47
2018-09-13T11:01:45.540Z,980.51
2018-09-13T11:02:54.842Z,980.48
2018-09-13T11:04:05.019Z,980.47
2018-09-13T11:05:15.873Z,980.55
2018-09-13T11:06:26.006Z,980.51
2018-09-13T11:07:36.131Z,980.57
2018-09-13T11:08:45.987Z,980.63
2018-09-13T11:09:55.841Z,980.66
2018-09-13T11:11:06.101Z,980.65
2018-09-13T11:12:16.504Z,980.63
2018-09-13T11:13:26.361Z,980.53
2018-09-13T11:14:35.669Z,980.69
2018-09-13T11:15:45.526Z,980.62
2018-09-13T11:16:55.708Z,980.49
2018-09-13T11:18:05.570Z,980.53
2018-09-13T11:19:15.478Z,980.46
2018-09-13T11:20:25.613Z,980.41
2018-09-13T11:21:35.809Z,980.51
2018-09-13T11:22:46.350Z,980.59
2018-09-13T11:23:56.491Z,980.49
2018-09-13T11:25:06.510Z,980.57
2018-09-13T11:26:16.371Z,980.56
2018-09-13T11:27:26.231Z,980.49
2018-09-13T11:28:36.148Z,980.49
2018-09-13T11:29:45.739Z,980.58
2018-09-13T11:30:55.975Z,980.62
2018-09-13T11:32:05.900Z,980.54
2018-09-13T11:33:16.037Z,980.56
2018-09-13T11:34:25.895Z,980.65
2018-09-13T11:35:35.756Z,980.62
2018-09-13T11:36:45.615Z,980.69
2018-09-13T11:37:55.473Z,980.7
2018-09-13T11:39:05.343Z,980.66
2018-09-13T11:40:15.593Z,980.66
2018-09-13T11:41:26.619Z,980.66
2018-09-13T11:42:36.206Z,980.7
2018-09-13T11:43:45.845Z,980.65
2018-09-13T11:44:55.762Z,980.7
2018-09-13T11:46:04.856Z,980.68
2018-09-13T11:47:14.720Z,980.73
2018-09-13T11:48:24.862Z,980.68
2018-09-13T11:49:35.110Z,980.66
2018-09-13T11:50:44.425Z,980.57
2018-09-13T11:51:54.606Z,980.59
2018-09-13T11:53:04.189Z,980.48
2018-09-13T11:54:14.376Z,980.59
2018-09-13T11:55:24.663Z,980.49
2018-09-13T11:56:34.531Z,980.5
2018-09-13T11:57:44.115Z,980.48
2018-09-13T11:58:53.985Z,980.59
2018-09-13T12:00:04.170Z,980.62
2018-09-13T12:01:14.099Z,980.58
2018-09-13T12:02:24.554Z,980.58
2018-09-13T12:03:34.695Z,980.56
2018-09-13T12:04:44.281Z,980.6
2018-09-13T12:05:54.420Z,980.56
2018-09-13T12:07:04.150Z,980.55
2018-09-13T12:08:13.735Z,980.54
2018-09-13T12:09:23.719Z,980.52
2018-09-13T12:10:34.102Z,980.49
2018-09-13T12:11:43.961Z,980.49
2018-09-13T12:12:53.924Z,980.41
2018-09-13T12:14:04.107Z,980.39
2018-09-13T12:15:14.250Z,980.41
2018-09-13T12:16:24.382Z,980.38
2018-09-13T12:17:34.241Z,980.37
2018-09-13T12:18:44.150Z,980.39
2018-09-13T12:19:54.011Z,980.32
2018-09-13T12:21:03.694Z,980.3
2018-09-13T12:22:13.830Z,980.31
2018-09-13T12:23:23.836Z,980.33
2018-09-13T12:24:33.518Z,980.33
2018-09-13T12:25:43.651Z,980.36
2018-09-13T12:26:53.782Z,980.32
2018-09-13T12:28:03.977Z,980.3
2018-09-13T12:29:13.842Z,980.29
2018-09-13T12:30:23.698Z,980.26
2018-09-13T12:31:33.936Z,980.27
2018-09-13T12:32:44.148Z,980.2
2018-09-13T12:33:54.022Z,980.24
2018-09-13T12:35:03.886Z,980.22
2018-09-13T12:36:13.621Z,980.2
2018-09-13T12:37:23.201Z,980.19
2018-09-13T12:38:33.442Z,980.19
2018-09-13T12:39:42.749Z,980.12
2018-09-13T12:40:52.703Z,980.11
2018-09-13T12:42:02.609Z,980.12
2018-09-13T12:43:12.241Z,980.07
2018-09-13T12:44:21.822Z,980.08
2018-09-13T12:45:31.126Z,980.06
2018-09-13T12:46:40.209Z,980.01
2018-09-13T12:47:50.386Z,980.05
2018-09-13T12:49:00.517Z,980.02
2018-09-13T12:50:10.108Z,980.02
2018-09-13T12:51:20.292Z,980
2018-09-13T12:52:30.425Z,979.98
2018-09-13T12:53:40.652Z,980
2018-09-13T12:54:50.780Z,980.01
2018-09-13T12:56:00.636Z,980.02
2018-09-13T12:57:10.806Z,980.06
2018-09-13T12:58:20.940Z,980.07
2018-09-13T12:59:31.115Z,980.02
2018-09-13T13:00:40.426Z,980.07
2018-09-13T13:01:50.561Z,980.04
2018-09-13T13:03:00.689Z,980.02
2018-09-13T13:04:10.821Z,980.05
2018-09-13T13:05:20.453Z,980.32
2018-09-13T13:06:30.634Z,980.07
2018-09-13T13:07:41.070Z,980
2018-09-13T13:08:51.283Z,979.95
2018-09-13T13:10:01.463Z,979.99
2018-09-13T13:11:10.819Z,979.88
2018-09-13T13:12:20.967Z,979.87
2018-09-13T13:13:30.607Z,979.87
2018-09-13T13:14:40.734Z,979.87
2018-09-13T13:15:50.869Z,979.83
2018-09-13T13:17:01.119Z,979.9
2018-09-13T13:18:11.524Z,979.87
2018-09-13T13:19:21.712Z,979.85
2018-09-13T13:20:32.127Z,979.84
2018-09-13T13:21:41.986Z,979.83
2018-09-13T13:22:52.194Z,979.86
2018-09-13T13:24:02.048Z,979.86
2018-09-13T13:25:11.905Z,979.84
2018-09-13T13:26:21.761Z,979.81
2018-09-13T13:27:31.752Z,979.79
2018-09-13T13:28:42.162Z,979.82
2018-09-13T13:29:51.738Z,979.87
2018-09-13T13:31:01.972Z,979.76
2018-09-13T13:32:12.097Z,979.74
2018-09-13T13:33:22.227Z,979.72
2018-09-13T13:34:32.401Z,979.72
2018-09-13T13:35:42.637Z,979.8
2018-09-13T13:36:52.487Z,979.72
2018-09-13T13:38:02.338Z,979.69
2018-09-13T13:39:11.920Z,979.66
2018-09-13T13:40:21.561Z,979.65
2018-09-13T13:41:31.527Z,979.65
2018-09-13T13:42:41.407Z,979.62
2018-09-13T13:43:51.601Z,979.63
2018-09-13T13:45:02.214Z,979.64
2018-09-13T13:46:12.506Z,979.66
2018-09-13T13:47:22.711Z,979.64
2018-09-13T13:48:32.564Z,979.66
2018-09-13T13:49:42.423Z,979.63
2018-09-13T13:50:52.275Z,979.64
2018-09-13T13:52:02.459Z,979.62
2018-09-13T13:53:12.580Z,979.61
2018-09-13T13:54:22.487Z,979.63
2018-09-13T13:55:32.407Z,979.61
2018-09-13T13:56:42.270Z,979.61
2018-09-13T13:57:52.172Z,979.59
2018-09-13T13:59:02.029Z,979.62
2018-09-13T14:00:12.156Z,979.64
2018-09-13T14:01:22.017Z,979.6
2018-09-13T14:02:32.021Z,979.53
2018-09-13T14:03:41.952Z,979.51
2018-09-13T14:04:52.101Z,979.49
2018-09-13T14:06:01.972Z,979.47
2018-09-13T14:07:12.099Z,979.46
2018-09-13T14:08:22.287Z,979.39
2018-09-13T14:09:32.537Z,979.4
2018-09-13T14:10:42.722Z,979.4
2018-09-13T14:11:52.630Z,979.4
2018-09-13T14:13:02.487Z,979.4
2018-09-13T14:14:12.070Z,979.36
2018-09-13T14:15:22.307Z,979.32
2018-09-13T14:16:32.468Z,979.36
2018-09-13T14:17:42.049Z,979.29
2018-09-13T14:18:51.900Z,979.34
2018-09-13T14:20:01.801Z,979.34
2018-09-13T14:21:11.990Z,979.32
2018-09-13T14:22:22.263Z,979.4
2018-09-13T14:23:32.395Z,979.41
2018-09-13T14:24:42.247Z,979.32
2018-09-13T14:25:52.165Z,979.32
2018-09-13T14:27:02.403Z,979.28
2018-09-13T14:28:11.985Z,979.39
2018-09-13T14:29:22.165Z,979.29
2018-09-13T14:30:32.067Z,979.2
2018-09-13T14:31:41.925Z,979.31
2018-09-13T14:32:51.829Z,979.3
2018-09-13T14:34:01.963Z,979.22
2018-09-13T14:35:11.548Z,979.45
2018-09-13T14:36:21.744Z,979.43
2018-09-13T14:37:31.085Z,979.13
2018-09-13T14:38:41.264Z,979.36
2018-09-13T14:39:50.848Z,979.33
2018-09-13T14:41:00.778Z,979.2
2018-09-13T14:42:10.385Z,979.16
2018-09-13T14:43:19.974Z,979.2
2018-09-13T14:44:29.935Z,979.18
2018-09-13T14:45:40.076Z,979.1
2018-09-13T14:46:50.409Z,979.02
2018-09-13T14:48:00.542Z,979.13
2018-09-13T14:49:10.405Z,979.16
2018-09-13T14:50:20.586Z,979.18
2018-09-13T14:51:30.462Z,979.25
2018-09-13T14:52:40.320Z,979.18
2018-09-13T14:53:50.207Z,979.07
2018-09-13T14:55:00.386Z,979.2
2018-09-13T14:56:10.352Z,979.17
2018-09-13T14:57:20.536Z,978.89
2018-09-13T14:58:30.994Z,979.02
2018-09-13T14:59:40.574Z,979.02
2018-09-13T15:00:50.711Z,978.85
2018-09-13T15:02:00.618Z,978.75
2018-09-13T15:03:10.526Z,978.77
2018-09-13T15:04:20.662Z,978.8
2018-09-13T15:05:30.569Z,978.82
2018-09-13T15:06:40.434Z,978.85
2018-09-13T15:07:50.042Z,978.76
2018-09-13T15:09:00.173Z,978.73
2018-09-13T15:10:10.030Z,978.73
2018-09-13T15:11:20.168Z,978.69
2018-09-13T15:12:29.756Z,978.65
2018-09-13T15:13:40.096Z,978.65
2018-09-13T15:14:50.229Z,978.57
2018-09-13T15:16:00.365Z,978.55
2018-09-13T15:17:09.997Z,978.54
2018-09-13T15:18:19.860Z,978.49
2018-09-13T15:19:30.047Z,978.44
2018-09-13T15:20:40.285Z,978.44
2018-09-13T15:21:50.147Z,978.48
2018-09-13T15:23:00.008Z,978.48
2018-09-13T15:24:10.010Z,978.5
2018-09-13T15:25:19.931Z,978.45
2018-09-13T15:26:29.785Z,978.52
2018-09-13T15:27:39.914Z,978.49
2018-09-13T15:28:50.044Z,978.37
2018-09-13T15:29:59.905Z,978.35
2018-09-13T15:31:09.825Z,978.39
2018-09-13T15:32:20.144Z,978.35
2018-09-13T15:33:30.282Z,978.35
2018-09-13T15:34:40.461Z,978.33
2018-09-13T15:35:50.598Z,978.31
2018-09-13T15:37:00.236Z,978.32
2018-09-13T15:38:10.439Z,978.32
2018-09-13T15:39:20.621Z,978.29
2018-09-13T15:40:30.203Z,978.36
2018-09-13T15:41:40.059Z,978.33
2018-09-13T15:42:50.221Z,978.28
2018-09-13T15:43:59.840Z,978.33
2018-09-13T15:45:10.024Z,978.26
2018-09-13T15:46:20.202Z,978.28
2018-09-13T15:47:30.056Z,978.21
2018-09-13T15:48:39.918Z,978.26
2018-09-13T15:49:50.054Z,978.21
2018-09-13T15:50:59.641Z,978.16
2018-09-13T15:52:09.500Z,978.14
2018-09-13T15:53:19.625Z,978.12
2018-09-13T15:54:29.812Z,978.09
2018-09-13T15:55:39.716Z,978.07
2018-09-13T15:56:49.570Z,978.04
2018-09-13T15:57:59.705Z,978.04
2018-09-13T15:59:09.565Z,978.05
2018-09-13T16:00:19.861Z,978.05
2018-09-13T16:01:29.722Z,978.06
2018-09-13T16:02:39.901Z,978.05
2018-09-13T16:03:49.760Z,978.06
2018-09-13T16:04:59.667Z,978.02
2018-09-13T16:06:09.866Z,978.08
2018-09-13T16:07:19.995Z,978.06
2018-09-13T16:08:30.171Z,978.05
2018-09-13T16:09:40.358Z,978.06
2018-09-13T16:10:50.498Z,978.08
2018-09-13T16:12:00.410Z,978.09
2018-09-13T16:13:10.353Z,978.04
2018-09-13T16:14:20.513Z,978.07
2018-09-13T16:15:30.422Z,978.06
2018-09-13T16:16:40.003Z,978.07
2018-09-13T16:17:49.964Z,978.07
2018-09-13T16:19:00.138Z,978.05
2018-09-13T16:20:09.172Z,978.08
2018-09-13T16:21:19.349Z,978.06
2018-09-13T16:22:29.549Z,978.02
2018-09-13T16:23:39.555Z,978.03
2018-09-13T16:24:49.425Z,978.01
2018-09-13T16:25:59.060Z,977.96
2018-09-13T16:27:08.932Z,977.95
2018-09-13T16:28:18.910Z,977.98
2018-09-13T16:29:28.513Z,977.94
2018-09-13T16:30:38.693Z,977.87
2018-09-13T16:31:48.595Z,977.86
2018-09-13T16:32:58.732Z,977.8
2018-09-13T16:34:08.872Z,977.8
2018-09-13T16:35:18.854Z,977.8
2018-09-13T16:36:29.512Z,977.74
2018-09-13T16:37:39.710Z,977.79
2018-09-13T16:38:49.566Z,977.79
2018-09-13T16:39:58.873Z,977.79
2018-09-13T16:41:08.741Z,977.77
2018-09-13T16:42:18.920Z,977.75
2018-09-13T16:43:29.241Z,977.67
2018-09-13T16:44:39.420Z,977.66
2018-09-13T16:45:49.607Z,977.68
2018-09-13T16:46:59.826Z,977.71
2018-09-13T16:48:09.864Z,977.64
2018-09-13T16:49:20.045Z,977.58
2018-09-13T16:50:29.907Z,977.61
2018-09-13T16:51:40.095Z,977.62
2018-09-13T16:52:49.671Z,977.63
2018-09-13T16:53:59.620Z,977.59
2018-09-13T16:55:09.857Z,977.61
2018-09-13T16:56:19.715Z,977.55
2018-09-13T16:57:29.618Z,977.52
2018-09-13T16:58:39.853Z,977.58
2018-09-13T16:59:49.991Z,977.5
2018-09-13T17:00:59.851Z,977.53
2018-09-13T17:02:10.026Z,977.52
2018-09-13T17:03:20.325Z,977.55
2018-09-13T17:04:29.904Z,977.52
2018-09-13T17:05:39.770Z,977.53
2018-09-13T17:06:49.382Z,977.51
2018-09-13T17:07:59.549Z,977.55
2018-09-13T17:09:09.405Z,977.52
2018-09-13T17:10:19.367Z,977.48
2018-09-13T17:11:29.216Z,977.55
2018-09-13T17:12:39.395Z,977.51
2018-09-13T17:13:48.703Z,977.48
2018-09-13T17:14:58.556Z,977.47
2018-09-13T17:16:08.747Z,977.44
2018-09-13T17:17:18.882Z,977.41
2018-09-13T17:18:29.011Z,977.37
2018-09-13T17:19:39.139Z,977.32
2018-09-13T17:20:49.278Z,977.36
2018-09-13T17:21:59.404Z,977.35
2018-09-13T17:23:09.312Z,977.3
2018-09-13T17:24:19.216Z,977.26
2018-09-13T17:25:29.067Z,977.27
2018-09-13T17:26:39.197Z,977.2
2018-09-13T17:27:49.101Z,977.15
2018-09-13T17:28:59.231Z,977.14
2018-09-13T17:30:09.411Z,977.13
2018-09-13T17:31:19.541Z,977.15
2018-09-13T17:32:29.676Z,977.12
2018-09-13T17:33:39.350Z,977.09
2018-09-13T17:34:49.630Z,977.13
2018-09-13T17:35:59.490Z,977.12
2018-09-13T17:37:09.344Z,977.17
2018-09-13T17:38:19.529Z,977.12
2018-09-13T17:39:29.764Z,977.17
2018-09-13T17:40:39.897Z,977.19
2018-09-13T17:41:50.020Z,977.2
2018-09-13T17:42:59.647Z,977.16
2018-09-13T17:44:09.785Z,977.19
2018-09-13T17:45:19.963Z,977.17
2018-09-13T17:46:30.107Z,977.2
2018-09-13T17:47:40.245Z,977.18
2018-09-13T17:48:50.210Z,977.22
2018-09-13T17:50:00.337Z,977.27
2018-09-13T17:51:10.255Z,977.23
2018-09-13T17:52:20.400Z,977.21
2018-09-13T17:53:30.530Z,977.22
2018-09-13T17:54:40.656Z,977.18
2018-09-13T17:55:50.296Z,977.16
2018-09-13T17:56:59.998Z,977.19
2018-09-13T17:58:10.153Z,977.11
2018-09-13T17:59:20.171Z,977.18
2018-09-13T18:00:30.028Z,977.13
2018-09-13T18:01:39.946Z,977.14
2018-09-13T18:02:49.804Z,977.11
2018-09-13T18:03:59.981Z,977.1
2018-09-13T18:05:09.619Z,977.08
2018-09-13T18:06:19.473Z,977.12
2018-09-13T18:07:29.338Z,977.09
2018-09-13T18:08:39.290Z,977.13
2018-09-13T18:09:48.873Z,977.15
2018-09-13T18:10:59.052Z,977.17
2018-09-13T18:12:09.437Z,977.17
2018-09-13T18:13:19.069Z,977.13
2018-09-13T18:14:29.252Z,977.08
2018-09-13T18:15:39.388Z,977.1
2018-09-13T18:16:49.288Z,977.06
2018-09-13T18:17:58.941Z,977.07
2018-09-13T18:19:08.853Z,977.12
2018-09-13T18:20:18.760Z,977.18
2018-09-13T18:21:28.345Z,977.1
2018-09-13T18:22:37.651Z,977.08
2018-09-13T18:23:47.833Z,977.07
2018-09-13T18:24:58.004Z,977.06
2018-09-13T18:26:07.961Z,977.01
2018-09-13T18:27:18.092Z,977.02
2018-09-13T18:28:28.220Z,977.02
2018-09-13T18:29:38.352Z,977.05
2018-09-13T18:30:48.484Z,977.02
2018-09-13T18:31:57.837Z,977.02
2018-09-13T18:33:07.687Z,976.97
2018-09-13T18:34:17.918Z,977.01
2018-09-13T18:35:27.504Z,976.94
2018-09-13T18:36:37.631Z,976.92
2018-09-13T18:37:47.853Z,976.93
2018-09-13T18:38:57.816Z,976.9
2018-09-13T18:40:07.952Z,976.95
2018-09-13T18:41:18.082Z,976.9
2018-09-13T18:42:28.223Z,976.9
2018-09-13T18:43:37.850Z,976.93
2018-09-13T18:44:47.983Z,976.97
2018-09-13T18:45:57.888Z,976.94
2018-09-13T18:47:07.488Z,976.94
2018-09-13T18:48:17.622Z,976.98
2018-09-13T18:49:27.852Z,977.06
2018-09-13T18:50:37.976Z,977.02
2018-09-13T18:51:47.839Z,977.01
2018-09-13T18:52:57.783Z,977
2018-09-13T18:54:08.123Z,977
2018-09-13T18:55:19.084Z,977.01
2018-09-13T18:56:29.243Z,976.97
2018-09-13T18:57:38.825Z,976.95
2018-09-13T18:58:48.684Z,976.98
2018-09-13T18:59:58.817Z,976.97
2018-09-13T19:01:09.050Z,976.94
2018-09-13T19:02:19.184Z,976.99
2018-09-13T19:03:29.371Z,976.92
2018-09-13T19:04:39.225Z,976.93
2018-09-13T19:05:49.359Z,976.99
2018-09-13T19:06:59.534Z,977.04
2018-09-13T19:08:09.404Z,977.07
2018-09-13T19:09:19.806Z,977.06
2018-09-13T19:10:29.989Z,977.04
2018-09-13T19:11:40.193Z,977.01
2018-09-13T19:12:50.378Z,977.03
2018-09-13T19:14:00.243Z,977
2018-09-13T19:15:10.374Z,977.01
2018-09-13T19:16:20.282Z,977
2018-09-13T19:17:30.193Z,977.02
2018-09-13T19:18:40.201Z,976.97
2018-09-13T19:19:50.338Z,977.05
2018-09-13T19:21:00.514Z,977.04
2018-09-13T19:22:10.374Z,977.05
2018-09-13T19:23:20.337Z,977.1
2018-09-13T19:24:30.513Z,977.06
2018-09-13T19:25:40.689Z,977.06
2018-09-13T19:26:50.599Z,977.02
2018-09-13T19:28:00.003Z,977.05
2018-09-13T19:29:09.602Z,977.04
2018-09-13T19:30:19.831Z,977.05
2018-09-13T19:31:29.678Z,977
2018-09-13T19:32:39.831Z,977.1
2018-09-13T19:33:50.001Z,977.02
2018-09-13T19:35:00.194Z,977.03
2018-09-13T19:36:10.370Z,977.02
2018-09-13T19:37:20.223Z,977.04
2018-09-13T19:38:30.357Z,977.14
2018-09-13T19:39:40.836Z,977.06
2018-09-13T19:40:50.813Z,977.03
2018-09-13T19:42:00.814Z,977.07
2018-09-13T19:43:11.046Z,977.07
2018-09-13T19:44:20.699Z,977.09
2018-09-13T19:45:30.611Z,977.01
2018-09-13T19:46:40.195Z,977.03
2018-09-13T19:47:50.374Z,977.02
2018-09-13T19:49:00.225Z,977.03
2018-09-13T19:50:10.081Z,977.06
2018-09-13T19:51:20.046Z,977.06
2018-09-13T19:52:30.324Z,976.98
2018-09-13T19:53:40.589Z,976.95
2018-09-13T19:54:50.496Z,976.94
2018-09-13T19:56:00.634Z,976.9
2018-09-13T19:57:10.762Z,976.95
2018-09-13T19:58:20.921Z,976.91
2018-09-13T19:59:31.201Z,976.89
2018-09-13T20:00:41.397Z,976.91
2018-09-13T20:01:51.526Z,976.81
2018-09-13T20:03:01.706Z,976.89
2018-09-13T20:04:11.816Z,976.87
2018-09-13T20:05:22.064Z,976.85
2018-09-13T20:06:31.919Z,976.84
2018-09-13T20:07:42.043Z,976.82
2018-09-13T20:08:51.906Z,976.82
2018-09-13T20:10:02.031Z,976.87
2018-09-13T20:11:11.658Z,976.82
2018-09-13T20:12:21.526Z,976.82
2018-09-13T20:13:31.377Z,976.85
2018-09-13T20:14:41.518Z,976.83
2018-09-13T20:15:51.657Z,976.81
2018-09-13T20:17:01.885Z,976.83
2018-09-13T20:18:12.047Z,976.9
2018-09-13T20:19:22.544Z,976.86
2018-09-13T20:20:32.397Z,976.87
2018-09-13T20:21:42.243Z,976.85
2018-09-13T20:22:51.821Z,976.9
2018-09-13T20:24:02.008Z,976.82
2018-09-13T20:25:11.865Z,976.9
2018-09-13T20:26:21.714Z,976.89
2018-09-13T20:27:31.564Z,976.82
2018-09-13T20:28:41.834Z,976.83
2018-09-13T20:29:52.589Z,976.81
2018-09-13T20:31:02.720Z,976.83
2018-09-13T20:32:12.575Z,976.81
2018-09-13T20:33:22.433Z,976.84
2018-09-13T20:34:32.656Z,976.83
2018-09-13T20:35:42.787Z,976.8
2018-09-13T20:36:52.924Z,976.74
2018-09-13T20:38:02.780Z,976.75
2018-09-13T20:39:12.723Z,976.79
2018-09-13T20:40:23.113Z,976.79
2018-09-13T20:41:32.968Z,976.78
2018-09-13T20:42:42.666Z,976.76
2018-09-13T20:43:53.348Z,976.84
2018-09-13T20:45:03.539Z,976.84
2018-09-13T20:46:13.449Z,976.76
2018-09-13T20:47:23.038Z,976.8
2018-09-13T20:48:33.214Z,976.79
2018-09-13T20:49:43.864Z,976.82
2018-09-13T20:50:53.993Z,976.82
2018-09-13T20:52:04.280Z,976.82
2018-09-13T20:53:13.583Z,976.81
2018-09-13T20:54:23.433Z,976.79
2018-09-13T20:55:33.326Z,976.86
2018-09-13T20:56:43.453Z,976.87
2018-09-13T20:57:53.580Z,976.85
2018-09-13T20:59:03.710Z,976.84
2018-09-13T21:00:13.842Z,976.86
2018-09-13T21:01:23.704Z,976.85
2018-09-13T21:02:33.849Z,976.85
2018-09-13T21:03:43.473Z,976.85
2018-09-13T21:04:53.605Z,976.86
2018-09-13T21:06:03.739Z,976.87
2018-09-13T21:07:13.864Z,976.82
2018-09-13T21:08:24.011Z,976.83
2018-09-13T21:09:34.479Z,976.84
2018-09-13T21:10:44.614Z,976.8
2018-09-13T21:11:54.473Z,976.76
2018-09-13T21:13:04.050Z,976.78
2018-09-13T21:14:14.182Z,976.72
2018-09-13T21:15:24.368Z,976.74
2018-09-13T21:16:34.496Z,976.73
2018-09-13T21:17:44.631Z,976.76
2018-09-13T21:18:54.751Z,976.77
2018-09-13T21:20:04.364Z,976.69
2018-09-13T21:21:14.492Z,976.71
2018-09-13T21:22:24.623Z,976.74
2018-09-13T21:23:34.748Z,976.73
2018-09-13T21:24:44.608Z,976.7
2018-09-13T21:25:54.742Z,976.71
2018-09-13T21:27:04.593Z,976.75
2018-09-13T21:28:14.460Z,976.71
2018-09-13T21:29:24.591Z,976.73
2018-09-13T21:30:34.168Z,976.69
2018-09-13T21:31:44.306Z,976.68
2018-09-13T21:32:54.509Z,976.66
2018-09-13T21:34:04.828Z,976.69
2018-09-13T21:35:14.673Z,976.63
2018-09-13T21:36:24.803Z,976.62
2018-09-13T21:37:34.927Z,976.68
2018-09-13T21:38:45.054Z,976.58
2018-09-13T21:39:54.912Z,976.57
2018-09-13T21:41:05.045Z,976.6
2018-09-13T21:42:15.171Z,976.58
2018-09-13T21:43:25.301Z,976.57
2018-09-13T21:44:35.481Z,976.58
2018-09-13T21:45:45.621Z,976.53
2018-09-13T21:46:55.751Z,976.58
2018-09-13T21:48:05.887Z,976.47
2018-09-13T21:49:16.049Z,976.48
2018-09-13T21:50:26.224Z,976.48
2018-09-13T21:51:36.346Z,976.51
2018-09-13T21:52:45.925Z,976.5
2018-09-13T21:53:55.777Z,976.52
2018-09-13T21:55:05.637Z,976.54
2018-09-13T21:56:15.814Z,976.58
2018-09-13T21:57:25.664Z,976.61
2018-09-13T21:58:35.247Z,976.59
2018-09-13T21:59:45.521Z,976.61
2018-09-13T22:00:55.661Z,976.65
2018-09-13T22:02:05.845Z,976.66
2018-09-13T22:03:15.975Z,976.72
2018-09-13T22:04:26.107Z,976.72
2018-09-13T22:05:35.967Z,976.72
2018-09-13T22:06:46.094Z,976.76
2018-09-13T22:07:58.231Z,976.79
2018-09-13T22:09:08.085Z,976.79
2018-09-13T22:10:17.937Z,976.79
2018-09-13T22:11:27.839Z,976.87
2018-09-13T22:12:37.115Z,976.82
2018-09-13T22:13:47.289Z,976.8
2018-09-13T22:14:56.870Z,976.82
2018-09-13T22:16:06.998Z,976.79
2018-09-13T22:17:17.120Z,976.85
2018-09-13T22:18:26.975Z,976.85
2018-09-13T22:19:36.876Z,976.84
2018-09-13T22:20:47.000Z,976.85
2018-09-13T22:21:57.136Z,976.85
2018-09-13T22:23:07.270Z,976.89
2018-09-13T22:24:16.294Z,976.89
2018-09-13T22:25:26.420Z,976.88
2018-09-13T22:26:35.721Z,976.98
2018-09-13T22:27:45.304Z,977.02
2018-09-13T22:28:55.191Z,977.03
2018-09-13T22:30:04.609Z,977.02
2018-09-13T22:31:14.525Z,977.02
2018-09-13T22:32:23.840Z,976.99
2018-09-13T22:33:33.972Z,977.01
2018-09-13T22:34:43.826Z,977